Aérodrome :
LOGIN :

S'inscrire | Disclaimer

   EN    FR    IT 

 










Légende :    VFR   VFR Marginal   IFR   IFR Intensif   IFR Très Intensif
Visi : 
Plafond : 
>= 8 km
>= 3000ft
5 à 8 km
1000 à 3000 ft
1500m à 5 km
500 à 1000 ft
800 à 1500m
200 à 500 ft
< 800m
< 200 ft
Symboles :   Orages  Brouillard  Fortes neiges  Fortes précipitations  Vent > 20 kt
SIGMETs :   Divers  Orages  Givrage  Turbulence  Onde Orograph.  Cendres Volcan.






- Altitude de l'aérodrome : 1046 ft
- Code IATA : NUE


EDDN - Nuremberg

DERNIER METAR :
  • 181350Z 25009KT 9999 SCT013 BKN045 02/M01 Q1023 R28/29//95 TEMPO BKN012

METARs EXPIRÉS :
  • 181320Z 26009KT 9999 SCT012 BKN045 02/M01 Q1023 R28/29//95 TEMPO BKN012
  • 181250Z 25009KT 9999 SCT012 BKN045 02/M01 Q1023 R28/29//95 TEMPO BKN012
  • 181220Z 25009KT 9999 BKN012 BKN043 02/M01 Q1023 R28/29//95 TEMPO SCT013
  • 181150Z 23009KT 9999 BKN014 BKN042 02/M00 Q1023 R28/29//95 TEMPO SCT013
  • 181120Z 24007KT 9999 SCT012 BKN042 02/M00 Q1024 R28/29//95 TEMPO BKN013

TAF TAF EDDN
Valide du 18 à 12h jusqu'au 19 à 12h UTC


181100Z 1812/1912 24007KT 9999 FEW012
PROB40
TEMPO 1812/1818 BKN012
TEMPO 1818/1901 3000 -SNRA BKN010
BECMG 1903/1905 18004KT
BECMG 1909/1911 20009KT
PROB30
TEMPO 1909/1911 -FZRA
TEMPO 1910/1912 2500 SNRA BKN010



MET'MAP, la Météo Aéronautique d'un coup d'oeil ! - Copyright ORBIFLY Décembre 2007 - Disclaimer

ORBIFLY MET'MAP TEAM :

Programmation & Développement : Alexandra Zaïnal
Sur une idée originale de : Baudouin d'Aumeries
Assistance à la programmation : Marc-Olivier Méhu
Soutien technique & logistique : Manuel Goepfert

Contact : metmap@orbifly.com




SOURCES & CREDITS :

   NOAA